createdAt,value
2022-11-23T00:01:40.492Z,97305.84
2022-11-23T00:03:42.737Z,97306.94
2022-11-23T00:05:44.365Z,97293.06
2022-11-23T00:07:45.951Z,97311.59
2022-11-23T00:09:47.895Z,97310.25
2022-11-23T00:11:49.493Z,97304.56
2022-11-23T00:13:59.916Z,97296.38
2022-11-23T00:16:14.785Z,97302.09
2022-11-23T00:18:19.376Z,97302.63
2022-11-23T00:20:21.212Z,97311.38
2022-11-23T00:22:25.940Z,97316.00
2022-11-23T00:24:33.601Z,97313.53
2022-11-23T00:26:39.824Z,97310.56
2022-11-23T00:28:44.232Z,97314.66
2022-11-23T00:30:50.159Z,97314.66
2022-11-23T00:32:51.671Z,97313.31
2022-11-23T00:34:53.164Z,97317.13
2022-11-23T00:36:59.919Z,97303.81
2022-11-23T00:39:03.833Z,97304.34
2022-11-23T00:41:08.978Z,97304.63
2022-11-23T00:43:10.682Z,97300.56
2022-11-23T00:45:12.437Z,97303.28
2022-11-23T00:47:14.145Z,97306.56
2022-11-23T00:49:17.967Z,97304.91
2022-11-23T00:51:22.816Z,97306.81
2022-11-23T00:53:24.407Z,97306.56
2022-11-23T00:55:26.117Z,97309.53
2022-11-23T00:57:27.717Z,97314.19
2022-11-23T00:59:29.865Z,97319.63
2022-11-23T01:01:34.518Z,97311.72
2022-11-23T01:03:38.587Z,97315.56
2022-11-23T01:05:40.602Z,97320.19
2022-11-23T01:07:42.165Z,97318.28
2022-11-23T01:09:45.516Z,97322.91
2022-11-23T01:11:47.907Z,97313.13
2022-11-23T01:13:50.300Z,97316.94
2022-11-23T01:15:51.911Z,97321.81
2022-11-23T01:17:54.450Z,97322.63
2022-11-23T01:19:56.081Z,97321.81
2022-11-23T01:21:57.884Z,97318.03
2022-11-23T01:24:17.220Z,97325.09
2022-11-23T01:26:19.253Z,97326.19
2022-11-23T01:28:20.757Z,97332.69
2022-11-23T01:30:22.467Z,97331.09
2022-11-23T01:32:26.471Z,97331.63
2022-11-23T01:34:28.303Z,97329.44
2022-11-23T01:36:34.214Z,97327.03
2022-11-23T01:38:35.849Z,97328.63
2022-11-23T01:40:42.738Z,97338.44
2022-11-23T01:42:52.529Z,97341.47
2022-11-23T01:45:32.723Z,97346.91
2022-11-23T01:47:35.995Z,97346.63
2022-11-23T01:49:48.896Z,97342.53
2022-11-23T01:51:53.642Z,97347.16
2022-11-23T01:54:00.535Z,97348.25
2022-11-23T01:56:06.098Z,97349.63
2022-11-23T01:58:10.494Z,97353.13
2022-11-23T02:00:13.483Z,97358.84
2022-11-23T02:02:16.395Z,97362.09
2022-11-23T02:04:28.053Z,97362.09
2022-11-23T02:06:31.383Z,97367.84
2022-11-23T02:08:37.484Z,97366.47
2022-11-23T02:10:39.207Z,97362.66
2022-11-23T02:12:44.844Z,97364.81
2022-11-23T02:14:47.347Z,97367.00
2022-11-23T02:16:49.100Z,97357.78
2022-11-23T02:18:51.903Z,97360.75
2022-11-23T02:20:57.231Z,97367.00
2022-11-23T02:23:04.577Z,97361.03
2022-11-23T02:25:18.132Z,97369.72
2022-11-23T02:27:21.436Z,97371.09
2022-11-23T02:29:26.770Z,97374.88
2022-11-23T02:31:28.940Z,97376.81
2022-11-23T02:33:33.777Z,97370.25
2022-11-23T02:35:35.733Z,97369.44
2022-11-23T02:37:37.880Z,97369.72
2022-11-23T02:39:47.159Z,97367.81
2022-11-23T02:41:51.412Z,97374.63
2022-11-23T02:43:56.715Z,97378.16
2022-11-23T02:46:04.229Z,97370.00
2022-11-23T02:48:05.885Z,97371.34
2022-11-23T02:50:07.827Z,97372.97
2022-11-23T02:52:09.938Z,97370.53
2022-11-23T02:54:14.232Z,97366.16
2022-11-23T02:56:18.081Z,97373.50
2022-11-23T02:58:25.200Z,97373.25
2022-11-23T03:00:26.876Z,97368.88
2022-11-23T03:02:37.199Z,97369.72
2022-11-23T03:04:38.873Z,97372.69
2022-11-23T03:06:41.408Z,97378.09
2022-11-23T03:08:42.990Z,97377.56
2022-11-23T03:10:45.808Z,97387.63
2022-11-23T03:12:53.639Z,97387.63
2022-11-23T03:14:58.219Z,97384.63
2022-11-23T03:17:00.299Z,97383.81
2022-11-23T03:19:05.997Z,97391.16
2022-11-23T03:21:09.089Z,97385.47
2022-11-23T03:23:12.670Z,97386.25
2022-11-23T03:25:15.455Z,97385.47
2022-11-23T03:27:19.866Z,97386.00
2022-11-23T03:29:29.458Z,97383.00
2022-11-23T03:31:36.309Z,97386.00
2022-11-23T03:33:40.471Z,97391.97
2022-11-23T03:35:45.035Z,97383.81
2022-11-23T03:37:59.707Z,97385.47
2022-11-23T03:40:01.748Z,97380.03
2022-11-23T03:42:09.851Z,97383.81
2022-11-23T03:44:12.906Z,97380.81
2022-11-23T03:46:17.272Z,97385.47
2022-11-23T03:48:21.926Z,97386.00
2022-11-23T03:50:24.009Z,97384.34
2022-11-23T03:52:25.796Z,97380.81
2022-11-23T03:54:27.382Z,97388.97
2022-11-23T03:56:28.972Z,97381.38
2022-11-23T03:58:31.539Z,97379.47
2022-11-23T04:00:36.719Z,97380.03
2022-11-23T04:02:38.892Z,97383.53
2022-11-23T04:04:44.220Z,97384.13
2022-11-23T04:07:18.137Z,97380.56
2022-11-23T04:09:25.448Z,97377.56
2022-11-23T04:11:47.027Z,97377.84
2022-11-23T04:13:52.662Z,97379.47
2022-11-23T04:15:54.457Z,97372.41
2022-11-23T04:17:56.973Z,97368.06
2022-11-23T04:19:58.533Z,97364.81
2022-11-23T04:22:00.359Z,97360.44
2022-11-23T04:24:06.892Z,97358.84
2022-11-23T04:26:10.815Z,97352.28
2022-11-23T04:28:16.319Z,97355.00
2022-11-23T04:30:20.207Z,97353.41
2022-11-23T04:32:22.232Z,97356.94
2022-11-23T04:34:24.496Z,97357.19
2022-11-23T04:36:28.237Z,97350.69
2022-11-23T04:38:34.671Z,97355.84
2022-11-23T04:40:39.184Z,97357.47
2022-11-23T04:42:42.304Z,97350.16
2022-11-23T04:44:43.983Z,97366.16
2022-11-23T04:46:45.741Z,97357.19
2022-11-23T04:48:48.931Z,97365.34
2022-11-23T04:50:55.422Z,97366.16
2022-11-23T04:53:05.222Z,97361.56
2022-11-23T04:55:14.616Z,97365.09
2022-11-23T04:57:24.608Z,97364.81
2022-11-23T04:59:27.268Z,97366.72
2022-11-23T05:01:29.070Z,97368.06
2022-11-23T05:03:59.938Z,97371.38
2022-11-23T05:06:03.640Z,97361.28
2022-11-23T05:08:12.853Z,97360.75
2022-11-23T05:10:37.934Z,97359.94
2022-11-23T05:12:39.939Z,97355.59
2022-11-23T05:14:43.538Z,97353.69
2022-11-23T05:16:47.016Z,97348.25
2022-11-23T05:18:50.080Z,97350.16
2022-11-23T05:20:51.773Z,97347.44
2022-11-23T05:22:53.690Z,97354.47
2022-11-23T05:24:58.269Z,97351.78
2022-11-23T05:27:01.106Z,97348.25
2022-11-23T05:29:03.028Z,97353.13
2022-11-23T05:31:06.053Z,97343.63
2022-11-23T05:33:11.204Z,97349.63
2022-11-23T05:35:15.021Z,97347.97
2022-11-23T05:37:19.545Z,97356.13
2022-11-23T05:39:27.951Z,97359.13
2022-11-23T05:41:29.768Z,97358.31
2022-11-23T05:43:34.763Z,97352.34
2022-11-23T05:45:36.773Z,97355.59
2022-11-23T05:47:40.422Z,97358.03
2022-11-23T05:49:53.158Z,97356.41
2022-11-23T05:51:59.360Z,97354.47
2022-11-23T05:54:02.946Z,97355.59
2022-11-23T05:56:19.735Z,97358.56
2022-11-23T05:58:37.390Z,97361.28
2022-11-23T06:00:41.953Z,97361.28
2022-11-23T06:02:44.179Z,97357.78
2022-11-23T06:04:47.802Z,97358.84
2022-11-23T06:06:59.225Z,97362.09
2022-11-23T06:09:01.749Z,97359.91
2022-11-23T06:11:04.757Z,97358.31
2022-11-23T06:13:07.499Z,97355.59
2022-11-23T06:15:10.401Z,97360.75
2022-11-23T06:17:14.839Z,97361.28
2022-11-23T06:19:19.637Z,97358.56
2022-11-23T06:21:22.809Z,97359.38
2022-11-23T06:23:24.988Z,97360.22
2022-11-23T06:25:38.047Z,97361.28
2022-11-23T06:28:00.446Z,97362.63
2022-11-23T06:30:09.432Z,97363.75
2022-11-23T06:32:14.068Z,97363.22
2022-11-23T06:34:16.660Z,97366.72
2022-11-23T06:36:18.538Z,97366.19
2022-11-23T06:38:24.053Z,97369.72
2022-11-23T06:40:45.401Z,97362.94
2022-11-23T06:42:50.223Z,97362.38
2022-11-23T06:44:59.373Z,97371.63
2022-11-23T06:47:04.891Z,97381.41
2022-11-23T06:49:06.596Z,97372.44
2022-11-23T06:51:08.245Z,97383.31
2022-11-23T06:53:14.669Z,97380.59
2022-11-23T06:55:22.118Z,97386.56
2022-11-23T06:57:26.265Z,97392.84
2022-11-23T06:59:29.311Z,97394.47
2022-11-23T07:01:31.352Z,97388.75
2022-11-23T07:03:40.691Z,97395.25
2022-11-23T07:06:13.104Z,97391.47
2022-11-23T07:08:16.746Z,97399.34
2022-11-23T07:10:19.859Z,97401.00
2022-11-23T07:12:25.991Z,97403.72
2022-11-23T07:14:28.087Z,97399.63
2022-11-23T07:16:31.040Z,97406.72
2022-11-23T07:18:33.106Z,97406.72
2022-11-23T07:20:36.958Z,97412.16
2022-11-23T07:22:45.360Z,97409.97
2022-11-23T07:24:49.131Z,97409.97
2022-11-23T07:26:51.216Z,97412.41
2022-11-23T07:28:55.483Z,97412.41
2022-11-23T07:30:57.660Z,97411.88
2022-11-23T07:33:08.204Z,97411.06
2022-11-23T07:35:14.027Z,97410.22
2022-11-23T07:37:18.581Z,97417.31
2022-11-23T07:39:32.117Z,97420.84
2022-11-23T07:41:42.494Z,97421.41
2022-11-23T07:43:51.690Z,97413.22
2022-11-23T07:45:58.439Z,97421.41
2022-11-23T07:48:08.603Z,97431.72
2022-11-23T07:50:13.355Z,97430.91
2022-11-23T07:52:17.781Z,97429.56
2022-11-23T07:54:23.522Z,97432.28
2022-11-23T07:56:28.633Z,97435.00
2022-11-23T07:58:32.503Z,97435.53
2022-11-23T08:00:34.166Z,97439.91
2022-11-23T08:02:39.149Z,97434.47
2022-11-23T08:04:44.002Z,97432.00
2022-11-23T08:06:45.675Z,97437.44
2022-11-23T08:08:47.316Z,97440.97
2022-11-23T08:10:53.367Z,97435.53
2022-11-23T08:13:00.132Z,97433.91
2022-11-23T08:15:02.012Z,97432.81
2022-11-23T08:17:05.682Z,97432.81
2022-11-23T08:19:07.956Z,97435.28
2022-11-23T08:21:09.632Z,97433.91
2022-11-23T08:23:12.345Z,97430.09
2022-11-23T08:25:14.308Z,97433.34
2022-11-23T08:27:16.246Z,97435.00
2022-11-23T08:29:21.028Z,97436.66
2022-11-23T08:31:22.552Z,97434.47
2022-11-23T08:33:26.830Z,97426.84
2022-11-23T08:35:28.483Z,97431.75
2022-11-23T08:37:37.517Z,97424.41
2022-11-23T08:39:39.442Z,97421.94
2022-11-23T08:41:42.044Z,97432.28
2022-11-23T08:43:43.740Z,97430.91
2022-11-23T08:45:45.397Z,97430.91
2022-11-23T08:47:55.888Z,97437.44
2022-11-23T08:49:57.475Z,97422.75
2022-11-23T08:52:00.085Z,97423.56
2022-11-23T08:54:01.704Z,97427.91
2022-11-23T08:56:07.333Z,97435.53
2022-11-23T08:58:13.657Z,97434.97
2022-11-23T09:00:15.776Z,97440.97
2022-11-23T09:02:17.395Z,97444.22
2022-11-23T09:04:20.854Z,97438.22
2022-11-23T09:06:28.982Z,97438.50
2022-11-23T09:08:31.291Z,97439.03
2022-11-23T09:10:36.117Z,97446.66
2022-11-23T09:12:38.174Z,97444.19
2022-11-23T09:14:43.672Z,97438.22
2022-11-23T09:16:45.298Z,97449.66
2022-11-23T09:18:49.415Z,97451.03
2022-11-23T09:20:51.456Z,97445.84
2022-11-23T09:22:54.878Z,97445.31
2022-11-23T09:24:56.605Z,97449.09
2022-11-23T09:26:58.439Z,97447.47
2022-11-23T09:29:00.109Z,97444.19
2022-11-23T09:31:04.432Z,97447.16
2022-11-23T09:33:09.352Z,97442.81
2022-11-23T09:35:12.331Z,97445.53
2022-11-23T09:37:16.309Z,97446.59
2022-11-23T09:39:18.170Z,97441.94
2022-11-23T09:41:56.738Z,97446.03
2022-11-23T09:44:34.811Z,97441.94
2022-11-23T09:47:06.301Z,97444.09
2022-11-23T09:49:18.906Z,97440.25
2022-11-23T09:51:23.230Z,97436.97
2022-11-23T09:53:45.637Z,97439.97
2022-11-23T09:55:50.414Z,97435.84
2022-11-23T09:58:04.423Z,97429.53
2022-11-23T10:00:15.774Z,97422.69
2022-11-23T10:02:23.092Z,97427.03
2022-11-23T10:04:32.931Z,97429.19
2022-11-23T10:06:40.519Z,97429.13
2022-11-23T10:09:19.383Z,97422.56
2022-11-23T10:11:30.627Z,97433.41
2022-11-23T10:13:56.648Z,97423.28
2022-11-23T10:16:00.750Z,97426.25
2022-11-23T10:18:13.991Z,97421.88
2022-11-23T10:20:50.442Z,97423.19
2022-11-23T10:23:00.504Z,97419.81
2022-11-23T10:25:12.903Z,97416.78
2022-11-23T10:27:25.047Z,97420.56
2022-11-23T10:29:42.084Z,97415.09
2022-11-23T10:32:22.536Z,97410.66
2022-11-23T10:34:40.939Z,97410.09
2022-11-23T10:36:45.369Z,97407.00
2022-11-23T10:38:59.986Z,97397.94
2022-11-23T10:41:18.760Z,97406.91
2022-11-23T10:43:28.730Z,97398.97
2022-11-23T10:45:40.040Z,97396.69
2022-11-23T10:47:53.309Z,97395.31
2022-11-23T10:49:58.725Z,97390.31
2022-11-23T10:52:30.586Z,97392.75
2022-11-23T10:54:47.388Z,97391.09
2022-11-23T10:56:50.894Z,97392.13
2022-11-23T10:58:52.640Z,97403.81
2022-11-23T11:01:12.511Z,97399.16
2022-11-23T11:03:25.277Z,97394.22
2022-11-23T11:06:09.525Z,97398.59
2022-11-23T11:08:15.312Z,97395.25
2022-11-23T11:10:43.105Z,97391.88
2022-11-23T11:12:51.398Z,97394.56
2022-11-23T11:15:10.798Z,97398.88
2022-11-23T11:17:28.363Z,97392.81
2022-11-23T11:19:29.956Z,97391.63
2022-11-23T11:21:41.084Z,97393.19
2022-11-23T11:23:47.906Z,97392.31
2022-11-23T11:26:22.746Z,97385.97
2022-11-23T11:32:02.531Z,97381.75
2022-11-23T11:34:55.334Z,97374.88
2022-11-23T11:37:12.224Z,97380.81
2022-11-23T11:40:15.202Z,97372.00
2022-11-23T11:42:09.273Z,97363.75
2022-11-23T11:45:07.775Z,97362.34
2022-11-23T11:47:31.089Z,97358.75
2022-11-23T11:49:44.210Z,97361.69
2022-11-23T11:54:37.212Z,97358.50
2022-11-23T11:56:46.449Z,97357.81
2022-11-23T11:59:13.545Z,97351.88
2022-11-23T12:01:16.544Z,97359.53
2022-11-23T12:03:21.092Z,97358.66
2022-11-23T12:05:36.591Z,97365.69
2022-11-23T12:08:15.310Z,97360.66
2022-11-23T12:10:27.978Z,97353.47
2022-11-23T12:12:32.006Z,97348.50
2022-11-23T12:14:33.801Z,97343.78
2022-11-23T12:19:36.675Z,97336.13
2022-11-23T12:21:59.908Z,97343.09
2022-11-23T12:24:22.090Z,97342.09
2022-11-23T12:26:39.300Z,97332.31
2022-11-23T12:29:10.366Z,97342.50
2022-11-23T12:31:33.081Z,97340.97
2022-11-23T12:33:55.407Z,97350.38
2022-11-23T12:36:23.793Z,97337.09
2022-11-23T12:38:48.104Z,97335.19
2022-11-23T12:41:13.055Z,97338.50
2022-11-23T12:43:36.677Z,97335.69
2022-11-23T12:45:56.396Z,97331.53
2022-11-23T12:48:22.112Z,97327.69
2022-11-23T12:50:51.703Z,97322.25
2022-11-23T12:53:18.678Z,97322.59
2022-11-23T12:55:29.205Z,97316.13
2022-11-23T12:57:43.966Z,97313.56
2022-11-23T12:59:54.886Z,97316.81
2022-11-23T13:02:04.013Z,97313.44
2022-11-23T13:04:24.520Z,97315.84
2022-11-23T13:07:28.030Z,97309.03
2022-11-23T13:09:40.228Z,97303.06
2022-11-23T13:12:12.116Z,97302.75
2022-11-23T13:14:42.774Z,97301.13
2022-11-23T13:17:04.656Z,97296.75
2022-11-23T13:19:27.211Z,97300.78
2022-11-23T13:21:42.822Z,97294.19
2022-11-23T13:23:44.720Z,97297.41
2022-11-23T13:26:18.168Z,97295.28
2022-11-23T13:28:32.211Z,97300.50
2022-11-23T13:31:07.174Z,97303.53
2022-11-23T13:33:01.428Z,97294.81
2022-11-23T13:35:04.977Z,97294.81
2022-11-23T13:37:14.116Z,97291.25
2022-11-23T13:39:37.951Z,97286.88
2022-11-23T13:41:39.951Z,97287.72
2022-11-23T13:43:41.853Z,97278.16
2022-11-23T13:45:47.603Z,97286.22
2022-11-23T13:48:54.769Z,97283.63
2022-11-23T13:50:49.228Z,97272.13
2022-11-23T13:52:51.925Z,97276.00
2022-11-23T13:55:13.229Z,97273.88
2022-11-23T13:57:15.046Z,97275.31
2022-11-23T13:59:25.146Z,97271.59
2022-11-23T14:02:03.176Z,97269.81
2022-11-23T14:04:23.589Z,97265.28
2022-11-23T14:06:34.753Z,97270.25
2022-11-23T14:08:39.754Z,97269.75
2022-11-23T14:10:44.247Z,97268.78
2022-11-23T14:13:17.223Z,97267.28
2022-11-23T14:15:22.326Z,97269.88
2022-11-23T14:17:50.145Z,97272.75
2022-11-23T14:20:11.646Z,97269.00
2022-11-23T14:22:33.178Z,97274.97
2022-11-23T14:24:46.277Z,97264.59
2022-11-23T14:27:46.291Z,97270.56
2022-11-23T14:29:53.303Z,97273.50
2022-11-23T14:32:16.492Z,97272.31
2022-11-23T14:34:35.664Z,97276.81
2022-11-23T14:36:59.116Z,97273.22
2022-11-23T14:39:09.986Z,97275.75
2022-11-23T14:41:20.952Z,97276.50
2022-11-23T14:43:22.706Z,97275.53
2022-11-23T14:45:29.783Z,97278.69
2022-11-23T14:47:32.422Z,97280.13
2022-11-23T14:49:34.477Z,97282.97
2022-11-23T14:51:43.492Z,97282.31
2022-11-23T14:53:48.940Z,97279.69
2022-11-23T14:55:50.608Z,97279.28
2022-11-23T14:58:02.981Z,97284.09
2022-11-23T15:00:11.456Z,97281.44
2022-11-23T15:02:34.899Z,97274.56
2022-11-23T15:04:55.149Z,97275.78
2022-11-23T15:07:03.925Z,97275.38
2022-11-23T15:09:27.546Z,97275.00
2022-11-23T15:11:31.856Z,97276.72
2022-11-23T15:13:44.244Z,97277.41
2022-11-23T15:15:47.434Z,97278.31
2022-11-23T15:17:52.021Z,97275.16
2022-11-23T15:20:04.603Z,97276.09
2022-11-23T15:22:16.393Z,97271.03
2022-11-23T15:24:26.836Z,97273.88
2022-11-23T15:28:52.474Z,97274.97
2022-11-23T15:30:58.309Z,97276.19
2022-11-23T15:33:11.486Z,97278.19
2022-11-23T15:35:16.668Z,97276.97
2022-11-23T15:37:19.091Z,97269.94
2022-11-23T15:39:23.972Z,97274.41
2022-11-23T15:41:27.789Z,97270.03
2022-11-23T15:43:29.406Z,97267.38
2022-11-23T15:45:39.446Z,97260.91
2022-11-23T15:47:41.097Z,97266.47
2022-11-23T15:49:42.996Z,97269.28
2022-11-23T15:51:45.828Z,97271.03
2022-11-23T15:53:50.549Z,97276.84
2022-11-23T15:55:57.026Z,97270.97
2022-11-23T15:58:07.618Z,97275.16
2022-11-23T16:00:33.148Z,97271.75
2022-11-23T16:02:37.554Z,97274.06
2022-11-23T16:04:41.255Z,97288.09
2022-11-23T16:06:52.740Z,97282.44
2022-11-23T16:08:54.670Z,97281.09
2022-11-23T16:10:57.366Z,97280.03
2022-11-23T16:13:03.712Z,97272.75
2022-11-23T16:15:27.513Z,97276.94
2022-11-23T16:17:30.213Z,97274.81
2022-11-23T16:19:35.403Z,97269.63
2022-11-23T16:21:37.268Z,97263.16
2022-11-23T16:23:55.339Z,97262.41
2022-11-23T16:26:09.218Z,97258.63
2022-11-23T16:28:29.725Z,97266.88
2022-11-23T16:30:40.536Z,97269.16
2022-11-23T16:32:42.296Z,97270.28
2022-11-23T16:34:47.019Z,97274.69
2022-11-23T16:36:49.371Z,97281.88
2022-11-23T16:38:51.280Z,97275.34
2022-11-23T16:40:53.043Z,97274.31
2022-11-23T16:42:54.969Z,97277.63
2022-11-23T16:44:56.564Z,97281.47
2022-11-23T16:47:19.920Z,97282.13
2022-11-23T16:49:23.697Z,97286.50
2022-11-23T16:51:28.401Z,97290.63
2022-11-23T16:53:47.159Z,97286.31
2022-11-23T16:56:00.405Z,97294.25
2022-11-23T16:58:01.991Z,97289.34
2022-11-23T17:00:13.911Z,97290.75
2022-11-23T17:02:19.279Z,97295.69
2022-11-23T17:04:21.056Z,97296.25
2022-11-23T17:06:25.764Z,97304.25
2022-11-23T17:08:27.599Z,97304.81
2022-11-23T17:10:32.924Z,97309.75
2022-11-23T17:12:36.524Z,97314.94
2022-11-23T17:14:42.367Z,97317.72
2022-11-23T17:16:47.326Z,97315.56
2022-11-23T17:18:49.065Z,97316.94
2022-11-23T17:20:54.437Z,97320.78
2022-11-23T17:23:00.146Z,97321.34
2022-11-23T17:25:02.222Z,97333.66
2022-11-23T17:27:03.849Z,97342.41
2022-11-23T17:29:16.987Z,97347.91
2022-11-23T17:31:21.921Z,97346.88
2022-11-23T17:33:23.423Z,97349.84
2022-11-23T17:35:25.205Z,97358.59
2022-11-23T17:37:32.746Z,97359.19
2022-11-23T17:39:34.784Z,97363.31
2022-11-23T17:41:36.923Z,97363.63
2022-11-23T17:43:38.659Z,97367.72
2022-11-23T17:45:41.278Z,97357.13
2022-11-23T17:47:46.948Z,97367.50
2022-11-23T17:49:48.534Z,97368.59
2022-11-23T17:51:50.166Z,97368.88
2022-11-23T17:53:52.144Z,97376.50
2022-11-23T17:55:53.935Z,97372.19
2022-11-23T17:57:55.688Z,97375.78
2022-11-23T18:00:01.969Z,97376.34
2022-11-23T18:02:13.289Z,97374.47
2022-11-23T18:04:15.302Z,97380.47
2022-11-23T18:06:21.893Z,97384.56
2022-11-23T18:08:26.727Z,97377.78
2022-11-23T18:10:28.431Z,97388.16
2022-11-23T18:12:32.131Z,97382.44
2022-11-23T18:14:34.268Z,97380.25
2022-11-23T18:16:38.778Z,97382.75
2022-11-23T18:18:40.677Z,97392.00
2022-11-23T18:20:43.777Z,97392.31
2022-11-23T18:22:45.474Z,97388.22
2022-11-23T18:24:47.538Z,97387.13
2022-11-23T18:26:49.292Z,97394.25
2022-11-23T18:28:55.078Z,97394.53
2022-11-23T18:30:58.481Z,97398.38
2022-11-23T18:33:00.093Z,97392.41
2022-11-23T18:35:01.940Z,97399.78
2022-11-23T18:37:03.796Z,97403.03
2022-11-23T18:39:25.119Z,97398.41
2022-11-23T18:41:29.665Z,97399.25
2022-11-23T18:43:31.865Z,97392.47
2022-11-23T18:45:36.710Z,97406.88
2022-11-23T18:47:42.854Z,97399.00
2022-11-23T18:49:44.914Z,97405.00
2022-11-23T18:51:46.638Z,97401.75
2022-11-23T18:53:50.009Z,97406.91
2022-11-23T18:55:57.554Z,97412.34
2022-11-23T18:58:02.616Z,97406.66
2022-11-23T19:00:08.551Z,97411.53
2022-11-23T19:02:11.171Z,97415.59
2022-11-23T19:04:13.280Z,97414.25
2022-11-23T19:06:17.549Z,97416.72
2022-11-23T19:08:19.502Z,97421.06
2022-11-23T19:10:22.629Z,97433.31
2022-11-23T19:12:24.427Z,97439.59
2022-11-23T19:14:26.694Z,97438.78
2022-11-23T19:16:32.118Z,97448.88
2022-11-23T19:18:35.326Z,97452.13
2022-11-23T19:20:36.971Z,97445.34
2022-11-23T19:22:38.834Z,97449.41
2022-11-23T19:24:43.183Z,97449.69
2022-11-23T19:26:52.220Z,97448.88
2022-11-23T19:28:54.750Z,97450.25
2022-11-23T19:31:00.387Z,97450.78
2022-11-23T19:33:05.223Z,97456.75
2022-11-23T19:35:07.614Z,97458.94
2022-11-23T19:37:09.390Z,97458.13
2022-11-23T19:39:11.097Z,97459.19
2022-11-23T19:41:13.221Z,97460.56
2022-11-23T19:43:14.809Z,97468.19
2022-11-23T19:45:22.597Z,97472.00
2022-11-23T19:47:30.449Z,97478.22
2022-11-23T19:49:32.317Z,97487.50
2022-11-23T19:51:34.934Z,97478.50
2022-11-23T19:53:38.076Z,97486.13
2022-11-23T19:55:41.817Z,97494.28
2022-11-23T19:57:43.507Z,97492.09
2022-11-23T19:59:51.777Z,97495.09
2022-11-23T20:01:53.669Z,97490.47
2022-11-23T20:03:57.885Z,97499.19
2022-11-23T20:06:04.378Z,97504.03
2022-11-23T20:08:06.311Z,97514.94
2022-11-23T20:10:08.607Z,97520.38
2022-11-23T20:12:10.298Z,97519.28
2022-11-23T20:14:12.580Z,97531.25
2022-11-23T20:16:19.007Z,97533.97
2022-11-23T20:18:23.428Z,97541.31
2022-11-23T20:20:29.286Z,97532.88
2022-11-23T20:22:31.924Z,97537.50
2022-11-23T20:24:35.629Z,97545.41
2022-11-23T20:26:38.009Z,97550.03
2022-11-23T20:28:39.750Z,97550.03
2022-11-23T20:30:42.478Z,97553.81
2022-11-23T20:32:44.620Z,97561.97
2022-11-23T20:34:46.447Z,97563.34
2022-11-23T20:36:48.209Z,97565.25
2022-11-23T20:38:52.970Z,97569.59
2022-11-23T20:40:54.713Z,97572.59
2022-11-23T20:42:59.555Z,97574.50
2022-11-23T20:45:04.251Z,97574.50
2022-11-23T20:47:08.935Z,97578.03
2022-11-23T20:49:10.620Z,97581.56
2022-11-23T20:51:15.115Z,97582.66
2022-11-23T20:53:22.915Z,97582.38
2022-11-23T20:55:24.585Z,97581.31
2022-11-23T20:57:26.284Z,97585.09
2022-11-23T20:59:28.102Z,97592.44
2022-11-23T21:01:32.746Z,97589.72
2022-11-23T21:03:35.741Z,97588.38
2022-11-23T21:05:37.702Z,97593.81
2022-11-23T21:07:39.509Z,97595.47
2022-11-23T21:09:44.655Z,97591.38
2022-11-23T21:12:05.190Z,97590.53
2022-11-23T21:14:17.553Z,97597.63
2022-11-23T21:16:20.128Z,97603.06
2022-11-23T21:18:21.646Z,97603.91
2022-11-23T21:20:23.140Z,97603.63
2022-11-23T21:22:27.891Z,97604.69
2022-11-23T21:24:29.574Z,97603.09
2022-11-23T21:26:31.689Z,97603.09
2022-11-23T21:28:33.843Z,97604.97
2022-11-23T21:30:36.276Z,97607.69
2022-11-23T21:32:38.163Z,97600.91
2022-11-23T21:34:40.070Z,97615.84
2022-11-23T21:36:41.724Z,97606.63
2022-11-23T21:38:43.604Z,97616.41
2022-11-23T21:40:47.902Z,97612.63
2022-11-23T21:42:51.857Z,97614.50
2022-11-23T21:44:53.477Z,97618.59
2022-11-23T21:46:55.244Z,97615.88
2022-11-23T21:48:58.412Z,97619.66
2022-11-23T21:51:08.018Z,97619.13
2022-11-23T21:53:09.413Z,97622.69
2022-11-23T21:55:10.970Z,97615.59
2022-11-23T21:57:12.573Z,97619.41
2022-11-23T21:59:14.408Z,97618.31
2022-11-23T22:01:20.637Z,97616.41
2022-11-23T22:03:22.712Z,97617.78
2022-11-23T22:05:24.715Z,97627.59
2022-11-23T22:07:26.621Z,97624.59
2022-11-23T22:09:30.949Z,97633.88
2022-11-23T22:11:35.130Z,97626.50
2022-11-23T22:13:37.244Z,97630.31
2022-11-23T22:15:39.065Z,97644.75
2022-11-23T22:17:40.762Z,97642.56
2022-11-23T22:19:45.588Z,97639.84
2022-11-23T22:21:47.429Z,97642.56
2022-11-23T22:23:49.048Z,97637.69
2022-11-23T22:25:51.678Z,97645.00
2022-11-23T22:27:53.895Z,97648.28
2022-11-23T22:29:58.354Z,97651.56
2022-11-23T22:31:59.982Z,97653.19
2022-11-23T22:34:03.235Z,97659.47
2022-11-23T22:36:12.300Z,97661.91
2022-11-23T22:38:14.002Z,97663.53
2022-11-23T22:40:16.349Z,97661.09
2022-11-23T22:42:18.015Z,97662.19
2022-11-23T22:44:19.573Z,97667.34
2022-11-23T22:46:25.296Z,97670.66
2022-11-23T22:48:29.947Z,97676.09
2022-11-23T22:50:34.666Z,97674.16
2022-11-23T22:52:36.290Z,97667.66
2022-11-23T22:54:38.395Z,97677.72
2022-11-23T22:56:42.424Z,97673.91
2022-11-23T22:58:47.066Z,97674.47
2022-11-23T23:00:51.510Z,97679.91
2022-11-23T23:02:54.969Z,97679.91
2022-11-23T23:04:56.665Z,97680.97
2022-11-23T23:06:58.312Z,97682.63
2022-11-23T23:09:01.281Z,97686.16
2022-11-23T23:11:05.227Z,97683.16
2022-11-23T23:13:07.173Z,97684.00
2022-11-23T23:15:09.043Z,97683.72
2022-11-23T23:17:10.858Z,97695.19
2022-11-23T23:19:12.424Z,97696.53
2022-11-23T23:21:33.143Z,97695.97
2022-11-23T23:23:34.705Z,97699.78
2022-11-23T23:25:38.531Z,97711.50
2022-11-23T23:27:40.249Z,97715.84
2022-11-23T23:29:42.678Z,97725.66
2022-11-23T23:31:44.501Z,97714.50
2022-11-23T23:33:46.120Z,97716.16
2022-11-23T23:35:47.663Z,97721.59
2022-11-23T23:37:51.032Z,97730.56
2022-11-23T23:39:52.745Z,97724.56
2022-11-23T23:41:54.330Z,97727.03
2022-11-23T23:43:58.463Z,97726.22
2022-11-23T23:46:02.340Z,97733.28
2022-11-23T23:48:04.246Z,97733.28
2022-11-23T23:50:06.897Z,97742.00
2022-11-23T23:52:08.687Z,97747.44
2022-11-23T23:54:10.647Z,97750.19
2022-11-23T23:56:14.701Z,97748.00
2022-11-23T23:58:16.372Z,97746.94
